Landels-Hill Big Creek Reserve Entrance, California Weather observations

Data are for 10 minute period ending at time listed.
 Day   Time   Solar   Ave.   Ave.  Ave.  Vector  Max.   Baro.   Total    
  of    of     Rad.   Air    Rel.  Wind   Wind   Wind  Press.  Precip.   
Year   Day            Temp.  Hum.  Speed  Dir.   Gust                    
2015   (PST)  Kw/m2    F      %     mph   deg.    mph    mb.     in.     
-------------------------------------------------------------------------
  90   20:10   0.00   53.5    62    1.6    14     5.0   1015.4    0.00 
  90   20:20   0.00   53.8    61    1.8    44     9.2   1015.5    0.00 
  90   20:30   0.00   53.8    62    0.9    90     4.3   1015.8    0.00 
  90   20:40   0.00   54.8    59    2.3   196     7.5   1015.9    0.00 
  90   20:50   0.00   56.3    54    1.4   126     5.2   1015.9    0.00 
  90   21:00   0.00   57.7    48    2.2    56     9.3   1015.9    0.00 
  90   21:10   0.00   58.5    47    4.0    36     9.2   1015.9    0.00 
  90   21:20   0.00   59.1    46    3.8    19    12.6   1015.9    0.00 
  90   21:30   0.00   58.6    48    2.6    66     7.2   1015.8    0.00 
  90   21:40   0.00   57.9    50    2.1    65     6.4   1016.0    0.00 
  90   21:50   0.00   57.8    50    3.8    65    12.3   1016.1    0.00 
  90   22:00   0.00   59.4    45    6.0    51    14.2   1016.1    0.00 
  90   22:10   0.00   59.4    45    5.7    51    14.0   1016.2    0.00 
  90   22:20   0.00   60.5    43    2.8   100    13.3   1016.1    0.00 
  90   22:30   0.00   58.3    49    2.8    77     8.2   1016.2    0.00 
  90   22:40   0.00   57.9    49    2.6   104     7.6   1016.3    0.00 
  90   22:50   0.00   57.8    50    3.0   118    10.4   1016.3    0.00 
  90   23:00   0.00   57.1    52    2.8   117     7.4   1016.3    0.00 
  90   23:10   0.00   56.9    53    2.7   170     7.7   1016.4    0.00 
  90   23:20   0.00   56.4    54    1.8   115     5.7   1016.5    0.00 
  90   23:30   0.00   55.8    55    2.2   172    11.1   1016.4    0.00 
  90   23:40   0.00   55.0    56    1.7    81     7.9   1016.6    0.00 
  90   23:50   0.00   55.1    57    1.9    98     7.3   1017.0    0.00 
  91    0:00   0.00   53.2    60    1.3    54     3.7   1016.9    0.00 
  91    0:10   0.00   51.5    63    1.9    47     4.2   1016.7    0.00 
  91    0:20   0.00   51.0    64    1.7    28     4.2   1016.7    0.00 
  91    0:30   0.00   50.3    66    1.7    25     3.4   1016.7    0.00 
  91    0:40   0.00   49.7    68    1.4    55     4.1   1016.8    0.00 
  91    0:50   0.00   49.4    68    1.4    60     3.5   1016.6    0.00 
  91    1:00   0.00   49.5    67    1.8    48     4.5   1016.5    0.00 
  91    1:10   0.00   49.7    66    2.3    48     5.0   1016.4    0.00 
  91    1:20   0.00   49.5    66    1.7    25     3.5   1016.5    0.00 
  91    1:30   0.00   48.7    69    1.4    15     4.1   1016.6    0.00 
  91    1:40   0.00   48.6    70    1.6    40     3.4   1016.7    0.00 
  91    1:50   0.00   48.4    70    2.1    50     4.0   1016.9    0.00 
  91    2:00   0.00   48.4    69    2.1    33     5.6   1016.9    0.00 
  91    2:10   0.00   48.3    70    1.9    45     3.8   1016.6    0.00 
  91    2:20   0.00   48.3    68    1.7    72     5.3   1016.2    0.00 
  91    2:30   0.00   48.5    66    1.6    45     4.0   1015.8    0.00 
  91    2:40   0.00   48.8    64    1.7   103     4.5   1015.8    0.00 
  91    2:50   0.00   48.3    66    1.8    33     4.9   1016.0    0.00 
  91    3:00   0.00   47.6    68    1.7    31     3.9   1016.1    0.00 
  91    3:10   0.00   47.0    70    1.6    30     3.9   1016.0    0.00 
  91    3:20   0.00   47.2    69    1.3    48     3.4   1016.0    0.00 
  91    3:30   0.00   47.0    69    2.6    34     6.2   1015.5    0.00 
  91    3:40   0.00   47.4    64    1.8    86     4.3   1015.2    0.00 
  91    3:50   0.00   47.4    64    1.1    23     3.6   1015.3    0.00 
  91    4:00   0.00   46.6    66    1.4    54     4.4   1015.4    0.00 
  91    4:10   0.00   46.5    66    1.6    33     3.5   1015.3    0.00 
  91    4:20   0.00   46.3    66    1.1    49     2.3   1015.4    0.00 
  91    4:30   0.00   46.2    67    1.3    23     3.0   1015.5    0.00 
  91    4:40   0.00   45.9    68    1.6    20     3.9   1015.7    0.00 
  91    4:50   0.00   46.2    68    1.7     7     4.7   1015.7    0.00 
  91    5:00   0.00   46.3    69    1.5    31     4.4   1015.7    0.00 
  91    5:10   0.00   45.8    70    1.4     7     4.0   1015.8    0.00 
  91    5:20   0.00   45.6    72    1.6    43     3.9   1015.7    0.00 
  91    5:30   0.00   46.6    71    1.6    45     4.2   1015.8    0.00 
  91    5:40   0.00   46.6    70    1.4    31     3.1   1016.0    0.00 
  91    5:50   0.00   46.0    71    1.4   349     4.6   1016.0    0.00 
  91    6:00   0.00   45.5    73    1.4    23     2.9   1015.8    0.00 
  91    6:10   0.01   45.7    73    1.1    11     3.5   1015.8    0.00 
  91    6:20   0.01   45.7    72    1.9    20     4.2   1016.1    0.00 
  91    6:30   0.01   46.0    71    1.8    30     5.0   1016.1    0.00 
  91    6:40   0.01   46.3    68    1.9    31     4.3   1016.2    0.00 
  91    6:50   0.01   45.8    69    1.1     2     3.3   1016.5    0.00 
  91    7:00   0.02   45.7    69    2.1    27     4.6   1016.6    0.00 
  91    7:10   0.03   46.0    68    1.1    13     2.9   1016.7    0.00 
  91    7:20   0.03   45.8    70    2.1    18     4.4   1016.7    0.00 
  91    7:30   0.03   46.1    70    1.4    33     3.4   1016.8    0.00 
  91    7:40   0.03   46.1    71    0.5     2     2.6   1016.8    0.00 
  91    7:50   0.04   45.7    74    0.5   350     2.3   1016.8    0.00 
  91    8:00   0.04   46.2    76    0.6   358     3.3   1016.8    0.00 
  91    8:10   0.04   46.6    78    0.2    51     1.0   1016.8    0.00 
  91    8:20   0.04   47.3    80    0.3   342     1.7   1016.9    0.00 
  91    8:30   0.04   48.4    81    0.9   302     5.5   1016.9    0.00 
  91    8:40   0.04   49.4    79    0.6    36     2.4   1016.9    0.00 
  91    8:50   0.04   50.3    76    0.7    46     2.5   1017.0    0.00 
  91    9:00   0.05   51.0    75    0.4   345     2.1   1017.2    0.00 
  91    9:10   0.08   51.5    75    0.9   276     3.7   1017.3    0.00 
  91    9:20   0.15   53.2    68    1.6   257     4.7   1017.1    0.00 
  91    9:30   0.32   53.8    69    1.5   259     4.8   1017.1    0.00 
  91    9:40   0.53   54.8    66    1.4   235     4.1   1016.9    0.00 
  91    9:50   0.49   55.1    64    1.4   111     4.4   1016.7    0.00 
  91   10:00   0.53   56.0    64    1.4   206     4.2   1016.6    0.00 
  91   10:10   0.66   56.9    61    0.9   233     3.0   1016.6    0.00 
  91   10:20   0.75   58.2    58    1.9   242     5.2   1016.8    0.00 
  91   10:30   0.77   58.5    57    1.6   137     5.2   1016.9    0.00 
  91   10:40   0.77   58.6    56    2.4   178     5.8   1017.0    0.00 
  91   10:50   0.81   59.0    54    3.0   220     8.5   1016.8    0.00 
  91   11:00   0.82   59.7    53    2.6   230     6.1   1016.6    0.00 
  91   11:10   0.85   60.0    53    3.3   229     9.3   1016.6    0.00 
  91   11:20   0.86   59.1    54    4.1   193     9.8   1016.5    0.00 
  91   11:30   0.87   59.2    54    4.4   158    10.3   1016.4    0.00 
  91   11:40   0.89   58.7    54    5.0   185    11.6   1016.3    0.00 
  91   11:50   0.87   58.8    54    5.4   177    13.4   1016.1    0.00 
  91   12:00   0.87   59.3    54    4.9   188    10.3   1015.9    0.00 
  91   12:10   0.89   59.7    53    5.4   182    12.4   1015.7    0.00 
  91   12:20   0.90   59.6    54    5.0   182    12.1   1015.5    0.00 
  91   12:30   0.90   59.6    54    5.0   191    11.0   1015.3    0.00 
  91   12:40   0.89   59.6    54    5.8   159    12.8   1015.3    0.00 
  91   12:50   0.89   59.6    54    6.4   155    16.6   1015.3    0.00 
  91   13:00   0.89   60.1    52    6.0   175    15.1   1015.1    0.00 
  91   13:10   0.88   59.4    54    6.8   159    16.0   1015.1    0.00 
  91   13:20   0.87   58.9    56    7.5   175    17.2   1015.1    0.00 
  91   13:30   0.86   58.8    57    6.8   176    15.6   1014.9    0.00 
  91   13:40   0.85   59.0    58    6.0   171    15.2   1014.8    0.00 
  91   13:50   0.83   59.3    57    6.9   163    16.7   1014.7    0.00 
  91   14:00   0.82   59.0    57    6.5   164    13.4   1014.7    0.00 
  91   14:10   0.80   59.5    55    6.0   114    13.6   1014.7    0.00 
  91   14:20   0.78   59.7    56    5.9   165    11.7   1014.6    0.00 
  91   14:30   0.76   59.7    55    5.7    82    20.5   1014.5    0.00 
  91   14:40   0.74   60.7    53    4.3   127    10.4   1014.3    0.00 
  91   14:50   0.70   60.3    53    7.6    73    21.4   1014.3    0.00 
  91   15:00   0.66   59.4    55    5.4    94    18.1   1014.3    0.00 
  91   15:10   0.62   59.4    54    9.4    72    21.4   1014.3    0.00 
  91   15:20   0.58   59.3    53    7.5    66    17.2   1014.3    0.00 
  91   15:30   0.60   59.4    53    7.9    48    17.5   1014.2    0.00 
  91   15:40   0.57   59.6    53    7.2    51    21.2   1014.2    0.00 
  91   15:50   0.54   59.5    53    8.0    63    20.2   1014.2    0.00 
  91   16:00   0.50   59.1    54    6.5    59    18.0   1014.2    0.00 
  91   16:10   0.46   59.1    54    6.5    49    21.3   1014.3    0.00 
  91   16:20   0.43   58.6    55    8.7    63    20.9   1014.2    0.00 
  91   16:30   0.40   59.1    54    6.2    42    14.5   1014.2    0.00 
  91   16:40   0.36   58.2    56    8.0    52    20.7   1014.3    0.00 
  91   16:50   0.32   57.7    57    8.4    60    22.9   1014.2    0.00 
  91   17:00   0.28   57.2    58    9.1    64    21.9   1014.1    0.00 
  91   17:10   0.24   56.9    58    8.8    49    24.4   1014.1    0.00 
  91   17:20   0.20   56.7    58   11.1    58    29.8   1014.0    0.00 
  91   17:30   0.08   56.3    59   10.4    49    23.8   1013.9    0.00 
  91   17:40   0.05   56.1    59    9.5    55    21.6   1013.8    0.00 
  91   17:50   0.04   56.0    58    9.5    61    22.1   1013.7    0.00 
  91   18:00   0.03   56.3    56    8.3    64    17.4   1013.8    0.00 
  91   18:10   0.03   56.3    56    6.8    52    15.2   1013.9    0.00 
  91   18:20   0.01   55.8    56   10.5    57    21.3   1014.1    0.00 
  91   18:30   0.01   55.4    56    8.6    49    22.1   1014.2    0.00 
  91   18:40   0.00   55.3    56    7.3    35    16.0   1014.3    0.00 
  91   18:50   0.00   55.1    54    8.1    38    16.8   1014.4    0.00 
  91   19:00   0.00   55.5    52    5.9    31    15.5   1014.4    0.00 
  91   19:10   0.00   55.3    52    4.7    30    11.0   1014.5    0.00 
  91   19:20   0.00   55.0    53    2.5    38     7.0   1014.7    0.00 
  91   19:30   0.00   54.3    55    1.4   108     6.9   1014.7    0.00 
  91   19:40   0.00   54.2    54    2.8    62     8.3   1014.8    0.00 
  91   19:50   0.00   54.5    51    5.8    59    15.8   1014.9    0.00 
  91   20:00   0.00   54.9    47    5.9    58    15.2   1015.0    0.00 

Return to Big Creek Reserve Entrance graphs page.


Western Regional Climate Center,wrcc@dri.edu